Time;durP1;ratioP1;P1;durP2;ratioP2;P2;SDS_P1;SDS_P2;PMS_P1;PMS_P2;Temp;Humidity;BMP_temperature;BMP_pressure;BME280_temperature;BME280_humidity;BME280_pressure;Samples;Min_cycle;Max_cycle;Signal;HPM_P1;HPM_P2
2023/04/21 00:00:12;;;;;;;29.88;21.30;;;10.10;99.90;;;;;;4916831;29;20040;-74
2023/04/21 00:02:40;;;;;;;27.80;21.42;;;10.10;99.90;;;;;;4900456;29;20024;-73
2023/04/21 00:05:09;;;;;;;31.80;21.05;;;10.10;99.90;;;;;;4917060;29;20020;-79
2023/04/21 00:07:37;;;;;;;29.15;21.35;;;10.10;99.90;;;;;;4917188;29;20027;-76
2023/04/21 00:10:07;;;;;;;32.90;21.70;;;10.10;99.90;;;;;;4916714;29;20496;-76
2023/04/21 00:12:33;;;;;;;31.92;20.95;;;10.00;99.90;;;;;;4917358;29;20035;-77
2023/04/21 00:14:59;;;;;;;29.65;21.35;;;10.00;99.90;;;;;;4915879;29;20114;-76
2023/04/21 00:17:25;;;;;;;29.90;19.38;;;10.10;99.90;;;;;;4916872;29;20035;-76
2023/04/21 00:19:51;;;;;;;31.80;21.85;;;10.10;99.90;;;;;;4899362;29;20044;-76
2023/04/21 00:22:17;;;;;;;31.95;20.10;;;10.10;99.90;;;;;;4916993;29;20036;-76
2023/04/21 00:24:44;;;;;;;29.80;21.23;;;10.10;99.90;;;;;;4916570;29;20032;-73
2023/04/21 00:27:10;;;;;;;27.20;19.75;;;10.10;99.90;;;;;;4916737;29;20036;-74
2023/04/21 00:29:38;;;;;;;29.15;19.85;;;10.10;99.90;;;;;;4899735;29;20502;-76
2023/04/21 00:32:07;;;;;;;28.15;19.85;;;10.10;99.90;;;;;;4916682;29;20123;-77
2023/04/21 00:34:33;;;;;;;30.60;21.52;;;10.10;99.90;;;;;;4899747;29;20036;-77
2023/04/21 00:36:59;;;;;;;29.17;19.88;;;10.00;99.90;;;;;;4916495;29;20024;-76
2023/04/21 00:39:25;;;;;;;27.05;18.65;;;9.90;99.90;;;;;;4916389;29;20096;-76
2023/04/21 00:41:51;;;;;;;28.08;18.77;;;10.00;99.90;;;;;;4913559;29;20038;-76
2023/04/21 00:44:16;;;;;;;29.45;17.77;;;9.90;99.90;;;;;;4899553;29;20035;-75
2023/04/21 00:46:42;;;;;;;28.63;18.58;;;9.90;99.90;;;;;;4916583;29;20107;-76
2023/04/21 00:49:08;;;;;;;26.85;16.90;;;9.90;99.90;;;;;;4910244;29;20039;-76
2023/04/21 00:51:36;;;;;;;28.15;17.88;;;9.90;99.90;;;;;;4899280;29;20020;-74
2023/04/21 00:54:04;;;;;;;26.95;17.20;;;9.80;99.90;;;;;;4915987;29;20020;-76
2023/04/21 00:56:32;;;;;;;24.88;17.58;;;9.90;99.90;;;;;;4899577;29;20032;-76
2023/04/21 00:59:03;;;;;;;27.58;18.48;;;9.80;99.90;;;;;;4915574;29;20569;-77
2023/04/21 01:01:36;;;;;;;25.67;18.20;;;9.80;99.90;;;;;;4898506;29;20047;-75
2023/04/21 01:04:03;;;;;;;25.95;18.42;;;9.70;99.90;;;;;;4915844;29;20036;-76
2023/04/21 01:06:33;;;;;;;26.88;18.92;;;9.60;99.90;;;;;;4915924;29;20028;-76
2023/04/21 01:09:00;;;;;;;27.00;18.30;;;9.60;99.90;;;;;;4915548;29;20072;-76
2023/04/21 01:11:26;;;;;;;29.58;19.58;;;9.60;99.90;;;;;;4898794;29;20020;-76
2023/04/21 01:13:56;;;;;;;30.98;18.92;;;9.60;99.90;;;;;;4898748;29;20036;-76
2023/04/21 01:16:23;;;;;;;26.77;17.42;;;9.70;99.90;;;;;;4899031;29;20048;-75
2023/04/21 01:18:50;;;;;;;27.40;18.60;;;9.70;99.90;;;;;;4898699;29;20044;-76
2023/04/21 01:21:18;;;;;;;28.23;17.92;;;9.70;99.90;;;;;;4916156;29;20032;-76
2023/04/21 01:23:44;;;;;;;27.25;18.58;;;9.70;99.90;;;;;;4915657;29;20039;-77
2023/04/21 01:26:10;;;;;;;25.13;17.83;;;9.70;99.90;;;;;;4898653;29;20044;-75
2023/04/21 01:28:37;;;;;;;25.48;17.33;;;9.70;99.90;;;;;;4898585;29;20031;-77
2023/04/21 01:31:04;;;;;;;27.23;18.58;;;9.70;99.90;;;;;;4898935;29;20039;-77
2023/04/21 01:33:30;;;;;;;28.10;17.75;;;9.70;99.90;;;;;;4915555;29;20032;-77
2023/04/21 01:35:58;;;;;;;27.23;18.38;;;9.80;99.90;;;;;;4898731;29;20044;-77
2023/04/21 01:38:24;;;;;;;26.65;18.00;;;9.80;99.90;;;;;;4915433;29;20485;-77
2023/04/21 01:40:52;;;;;;;23.65;16.95;;;9.80;99.90;;;;;;4897596;29;20038;-74
2023/04/21 01:43:24;;;;;;;24.92;18.00;;;9.70;99.90;;;;;;4899099;29;20123;-77
2023/04/21 01:45:50;;;;;;;26.13;16.88;;;9.80;99.90;;;;;;4898524;29;20035;-75
2023/04/21 01:48:16;;;;;;;24.05;15.90;;;9.80;99.90;;;;;;4898477;29;20585;-75
2023/04/21 01:50:42;;;;;;;26.52;16.77;;;9.80;99.90;;;;;;4915437;29;20040;-75
2023/04/21 01:53:09;;;;;;;24.30;16.65;;;9.80;99.90;;;;;;4898686;29;20024;-74
2023/04/21 01:55:35;;;;;;;25.45;17.58;;;9.80;99.90;;;;;;4897427;29;20107;-76
2023/04/21 01:58:01;;;;;;;28.27;18.20;;;9.90;99.90;;;;;;4898166;29;20039;-74
2023/04/21 02:00:27;;;;;;;26.08;17.60;;;9.80;99.90;;;;;;4897559;29;20138;-74
2023/04/21 02:02:53;;;;;;;23.02;15.10;;;9.80;99.90;;;;;;4882740;29;20060;-74
2023/04/21 02:05:18;;;;;;;22.35;16.23;;;9.80;99.90;;;;;;4897847;29;20424;-74
2023/04/21 02:07:44;;;;;;;22.50;16.02;;;9.80;99.90;;;;;;4915292;29;20033;-73
2023/04/21 02:10:11;;;;;;;23.27;16.23;;;9.80;99.90;;;;;;4898341;29;20098;-75
2023/04/21 02:12:37;;;;;;;20.45;14.82;;;9.70;99.90;;;;;;4915387;29;20039;-75
2023/04/21 02:15:04;;;;;;;25.23;16.10;;;9.70;99.90;;;;;;4915287;29;20137;-74
2023/04/21 02:17:30;;;;;;;24.23;15.95;;;9.70;99.90;;;;;;4898640;29;20179;-76
2023/04/21 02:19:56;;;;;;;25.42;14.88;;;9.70;99.90;;;;;;4896950;29;20040;-76
2023/04/21 02:22:22;;;;;;;23.77;15.32;;;9.70;99.90;;;;;;4899090;29;20107;-76
2023/04/21 02:24:49;;;;;;;24.17;15.93;;;9.70;99.90;;;;;;4919168;29;20064;-76
2023/04/21 02:27:15;;;;;;;24.70;16.33;;;9.70;99.90;;;;;;4917755;29;20103;-75
2023/04/21 02:29:41;;;;;;;22.77;15.35;;;9.80;99.90;;;;;;4901228;29;20119;-75
2023/04/21 02:32:07;;;;;;;23.05;15.13;;;9.80;99.90;;;;;;4900469;29;20605;-75
2023/04/21 02:34:33;;;;;;;24.75;15.07;;;9.80;99.90;;;;;;4901396;29;20035;-75
2023/04/21 02:36:59;;;;;;;23.63;14.75;;;9.80;99.90;;;;;;4901985;29;20563;-74
2023/04/21 02:39:25;;;;;;;24.08;15.95;;;9.80;99.90;;;;;;4901521;29;20065;-75
2023/04/21 02:41:51;;;;;;;22.55;14.73;;;9.70;99.90;;;;;;4901944;29;20036;-73
2023/04/21 02:44:17;;;;;;;20.58;14.85;;;9.60;99.90;;;;;;4917206;29;20028;-76
2023/04/21 02:46:44;;;;;;;21.85;16.50;;;9.70;99.90;;;;;;4901604;29;20449;-77
2023/04/21 02:49:10;;;;;;;28.92;16.67;;;9.70;99.90;;;;;;4901623;29;20028;-76
2023/04/21 02:51:36;;;;;;;22.60;14.88;;;9.70;99.90;;;;;;4918723;29;20028;-77
2023/04/21 02:54:02;;;;;;;22.80;16.90;;;9.60;99.90;;;;;;4900185;29;20092;-78
2023/04/21 02:56:28;;;;;;;23.50;15.23;;;9.50;99.90;;;;;;4907671;29;20042;-78
2023/04/21 02:58:54;;;;;;;22.83;15.77;;;9.60;99.90;;;;;;4918295;29;20024;-78
2023/04/21 03:01:19;;;;;;;25.02;16.17;;;9.50;99.90;;;;;;4911787;29;20040;-77
2023/04/21 03:03:45;;;;;;;25.67;16.77;;;9.50;99.90;;;;;;4885162;29;20504;-77
2023/04/21 03:06:11;;;;;;;26.98;15.88;;;9.50;99.90;;;;;;4899667;29;20396;-78
2023/04/21 03:08:38;;;;;;;23.88;15.65;;;9.50;99.90;;;;;;4918353;29;20020;-77
2023/04/21 03:11:05;;;;;;;26.63;15.90;;;9.50;99.90;;;;;;4918052;29;20624;-76
2023/04/21 03:13:30;;;;;;;24.00;15.10;;;9.50;99.90;;;;;;4901265;29;20511;-77
2023/04/21 03:15:56;;;;;;;23.05;15.23;;;9.50;99.90;;;;;;4917472;29;20086;-77
2023/04/21 03:18:22;;;;;;;26.20;16.40;;;9.50;99.90;;;;;;4916173;29;20940;-77
2023/04/21 03:20:49;;;;;;;24.35;14.30;;;9.50;99.90;;;;;;4917850;29;20032;-77
2023/04/21 03:23:15;;;;;;;32.30;16.75;;;9.60;99.90;;;;;;4900635;29;20047;-78
2023/04/21 03:25:42;;;;;;;21.30;14.88;;;9.60;99.90;;;;;;4901098;29;20112;-78
2023/04/21 03:28:08;;;;;;;27.48;16.30;;;9.60;99.90;;;;;;4914315;29;20032;-76
2023/04/21 03:30:34;;;;;;;25.92;16.27;;;9.60;99.90;;;;;;4900938;29;20477;-74
2023/04/21 03:33:00;;;;;;;22.35;14.18;;;9.60;99.90;;;;;;4916868;29;20032;-76
2023/04/21 03:35:26;;;;;;;28.95;15.57;;;9.60;99.90;;;;;;4915783;29;20028;-75
2023/04/21 03:37:52;;;;;;;22.55;15.63;;;9.50;99.90;;;;;;4900700;29;20109;-76
2023/04/21 03:40:17;;;;;;;25.75;15.88;;;9.60;99.90;;;;;;4899958;29;20028;-74
2023/04/21 03:42:43;;;;;;;25.75;15.75;;;9.50;99.90;;;;;;4900470;29;20445;-76
2023/04/21 03:45:09;;;;;;;23.92;15.68;;;9.60;99.90;;;;;;4917843;29;20067;-76
2023/04/21 03:47:36;;;;;;;25.88;16.35;;;9.60;99.90;;;;;;4912702;29;20020;-76
2023/04/21 03:50:05;;;;;;;24.08;15.52;;;9.50;99.90;;;;;;4899685;29;20036;-75
2023/04/21 03:52:31;;;;;;;25.27;17.08;;;9.50;99.90;;;;;;4917483;29;20024;-75
2023/04/21 03:54:57;;;;;;;29.95;18.27;;;9.50;99.90;;;;;;4917141;29;20043;-76
2023/04/21 03:57:23;;;;;;;25.33;17.50;;;9.40;99.90;;;;;;4915722;29;20413;-76
2023/04/21 03:59:49;;;;;;;30.00;17.40;;;9.40;99.90;;;;;;4917050;29;20088;-77
2023/04/21 04:02:15;;;;;;;28.80;17.05;;;9.50;99.90;;;;;;4904132;29;20044;-74
2023/04/21 04:04:40;;;;;;;25.50;17.17;;;9.60;99.90;;;;;;4910699;29;20126;-76
2023/04/21 04:07:07;;;;;;;24.77;16.33;;;9.70;99.90;;;;;;4910509;29;20028;-76
2023/04/21 04:09:33;;;;;;;20.95;14.63;;;9.90;99.90;;;;;;4915562;29;20017;-75
2023/04/21 04:12:00;;;;;;;21.40;14.27;;;10.20;99.90;;;;;;4916672;29;20032;-75
2023/04/21 04:14:26;;;;;;;21.52;15.60;;;10.40;99.90;;;;;;4917168;29;20111;-76
2023/04/21 04:16:51;;;;;;;24.40;15.25;;;10.60;99.90;;;;;;4917025;29;20492;-77
2023/04/21 04:19:17;;;;;;;22.65;14.70;;;10.90;99.90;;;;;;4915265;29;20047;-76
2023/04/21 04:21:43;;;;;;;22.05;13.20;;;11.30;99.90;;;;;;4916799;29;20032;-77
2023/04/21 04:24:10;;;;;;;20.95;14.50;;;11.60;99.90;;;;;;4910849;29;20095;-76
2023/04/21 04:26:37;;;;;;;23.60;15.23;;;11.40;99.90;;;;;;4915226;29;20032;-76
2023/04/21 04:29:04;;;;;;;22.70;15.88;;;11.20;99.90;;;;;;4916340;29;20362;-78
2023/04/21 04:31:31;;;;;;;22.02;15.68;;;11.10;99.90;;;;;;4916880;29;20028;-76
2023/04/21 04:33:57;;;;;;;25.27;16.17;;;10.70;99.90;;;;;;4916535;29;20107;-75
2023/04/21 04:36:23;;;;;;;26.98;16.48;;;10.70;99.90;;;;;;4914388;29;20185;-75
2023/04/21 04:38:50;;;;;;;23.30;15.23;;;10.70;99.90;;;;;;4909621;29;20043;-78
2023/04/21 04:41:16;;;;;;;26.45;17.73;;;10.60;99.90;;;;;;4913587;29;20044;-78
2023/04/21 04:43:42;;;;;;;23.95;14.77;;;10.50;99.90;;;;;;4916502;29;20097;-78
2023/04/21 04:46:10;;;;;;;21.88;15.10;;;10.50;99.90;;;;;;4916149;29;20393;-77
2023/04/21 04:48:35;;;;;;;25.48;16.70;;;10.50;99.90;;;;;;4912091;29;20064;-75
2023/04/21 04:51:01;;;;;;;26.08;15.70;;;10.60;99.90;;;;;;4910248;29;20123;-73
2023/04/21 04:53:28;;;;;;;25.85;16.67;;;10.40;99.90;;;;;;4915392;29;20048;-75
2023/04/21 04:55:54;;;;;;;24.65;15.90;;;10.50;99.90;;;;;;4916239;29;20115;-76
2023/04/21 04:58:21;;;;;;;23.33;16.17;;;10.50;99.90;;;;;;4915976;29;20039;-75
2023/04/21 05:00:46;;;;;;;22.33;16.02;;;10.50;99.90;;;;;;4914737;29;20034;-75
2023/04/21 05:03:12;;;;;;;31.25;17.35;;;10.60;99.90;;;;;;4916276;29;20384;-75
2023/04/21 05:05:38;;;;;;;30.65;17.85;;;10.70;99.90;;;;;;4916202;29;20552;-77
2023/04/21 05:08:04;;;;;;;26.05;17.05;;;10.70;99.90;;;;;;4916083;29;20060;-78
2023/04/21 05:10:30;;;;;;;23.30;15.88;;;10.80;99.90;;;;;;4914691;29;20130;-78
2023/04/21 05:12:55;;;;;;;29.42;15.27;;;10.80;99.90;;;;;;4914397;29;20084;-74
2023/04/21 05:15:21;;;;;;;26.45;16.95;;;10.80;99.90;;;;;;4908580;29;20489;-78
2023/04/21 05:17:48;;;;;;;24.55;16.88;;;10.80;99.90;;;;;;4908621;29;20032;-75
2023/04/21 05:20:15;;;;;;;22.33;15.80;;;10.80;99.90;;;;;;4913199;29;20051;-78
2023/04/21 05:22:41;;;;;;;25.77;16.20;;;10.90;99.90;;;;;;4916066;29;20032;-78
2023/04/21 05:25:09;;;;;;;24.67;15.50;;;10.90;99.90;;;;;;4897390;29;20087;-74
2023/04/21 05:27:34;;;;;;;26.20;16.73;;;11.00;99.90;;;;;;4911085;29;20450;-77
2023/04/21 05:30:00;;;;;;;26.40;16.80;;;11.00;99.90;;;;;;4907493;29;20039;-75
2023/04/21 05:32:28;;;;;;;25.27;17.05;;;11.10;99.90;;;;;;4915134;29;20079;-77
2023/04/21 05:34:53;;;;;;;26.08;17.35;;;11.10;99.90;;;;;;4914578;29;20528;-76
2023/04/21 05:37:19;;;;;;;33.42;18.42;;;11.20;99.90;;;;;;4915660;29;20131;-74
2023/04/21 05:39:46;;;;;;;26.38;15.85;;;11.20;99.90;;;;;;4910179;29;20032;-79
2023/04/21 05:42:12;;;;;;;23.00;14.95;;;11.40;99.90;;;;;;4903905;29;20035;-76
2023/04/21 05:44:39;;;;;;;25.45;15.65;;;11.60;99.90;;;;;;4905550;29;20031;-75
2023/04/21 05:47:05;;;;;;;22.77;14.70;;;11.90;99.90;;;;;;4915521;29;20028;-73
2023/04/21 05:49:31;;;;;;;23.55;15.07;;;12.10;99.90;;;;;;4906591;29;20033;-79
2023/04/21 05:51:57;;;;;;;23.30;15.85;;;12.10;99.90;;;;;;4913701;29;20508;-75
2023/04/21 05:54:24;;;;;;;24.00;15.70;;;12.00;99.90;;;;;;4912536;29;20040;-81
2023/04/21 05:56:50;;;;;;;22.38;16.08;;;12.10;99.90;;;;;;4916088;29;20043;-81
2023/04/21 05:59:16;;;;;;;26.15;17.10;;;12.00;99.90;;;;;;4918813;29;20028;-74
2023/04/21 06:01:42;;;;;;;26.25;15.75;;;12.10;99.90;;;;;;4917845;29;20042;-81
2023/04/21 06:04:08;;;;;;;22.80;15.15;;;12.20;99.90;;;;;;4918546;29;20387;-75
2023/04/21 06:06:34;;;;;;;22.27;15.70;;;12.30;99.90;;;;;;4919381;29;20123;-82
2023/04/21 06:09:00;;;;;;;23.13;15.80;;;12.60;99.90;;;;;;4918632;29;20025;-78
2023/04/21 06:11:25;;;;;;;18.60;13.73;;;12.70;99.90;;;;;;4919598;29;20400;-82
2023/04/21 06:13:53;;;;;;;22.05;14.00;;;12.80;99.90;;;;;;4915206;29;20056;-74
2023/04/21 06:16:19;;;;;;;27.60;13.20;;;13.00;99.90;;;;;;4908416;29;20051;-77
2023/04/21 06:18:45;;;;;;;21.15;14.15;;;13.00;99.90;;;;;;4917326;29;20035;-82
2023/04/21 06:21:12;;;;;;;21.35;13.40;;;13.10;99.90;;;;;;4918375;29;20044;-80
2023/04/21 06:23:38;;;;;;;20.67;13.35;;;13.30;99.90;;;;;;4918742;29;20484;-75
2023/04/21 06:26:06;;;;;;;21.63;13.63;;;13.30;99.90;;;;;;4919101;29;20075;-82
2023/04/21 06:28:33;;;;;;;21.73;12.88;;;13.50;99.90;;;;;;4917197;29;20024;-83
2023/04/21 06:31:01;;;;;;;21.10;13.57;;;13.80;99.90;;;;;;4918908;29;20044;-77
2023/04/21 06:33:27;;;;;;;22.58;13.15;;;13.70;99.90;;;;;;4919103;29;20020;-82
2023/04/21 06:35:53;;;;;;;22.23;13.82;;;13.70;99.90;;;;;;4918870;29;20044;-77
2023/04/21 06:38:19;;;;;;;20.52;13.45;;;13.80;99.90;;;;;;4918984;29;20020;-84
2023/04/21 06:40:45;;;;;;;24.95;14.68;;;13.60;99.90;;;;;;4917287;29;20032;-82
2023/04/21 06:43:11;;;;;;;24.98;16.23;;;13.50;99.90;;;;;;4905958;29;20024;-82
2023/04/21 06:45:37;;;;;;;21.30;16.33;;;13.80;99.90;;;;;;4918555;29;20043;-78
2023/04/21 06:48:03;;;;;;;20.75;13.30;;;13.90;99.90;;;;;;4906190;29;20028;-81
2023/04/21 06:50:31;;;;;;;19.88;13.90;;;14.30;99.90;;;;;;4916901;29;20539;-82
2023/04/21 06:52:57;;;;;;;25.30;14.95;;;14.10;99.90;;;;;;4917846;29;20040;-82
2023/04/21 06:55:22;;;;;;;23.65;15.05;;;14.50;99.90;;;;;;4918846;29;20032;-81
2023/04/21 06:57:48;;;;;;;21.50;14.95;;;14.70;99.90;;;;;;4917981;29;20032;-82
2023/04/21 07:00:15;;;;;;;20.58;14.52;;;14.90;99.90;;;;;;4918142;29;20043;-83
2023/04/21 07:02:40;;;;;;;21.02;14.95;;;14.80;99.90;;;;;;4917776;29;20051;-84
2023/04/21 07:05:06;;;;;;;23.05;14.02;;;15.20;99.90;;;;;;4917203;29;20669;-83
2023/04/21 07:07:33;;;;;;;21.92;14.27;;;15.50;99.90;;;;;;4915415;29;20034;-84
2023/04/21 07:09:58;;;;;;;23.83;15.05;;;15.50;99.90;;;;;;4917955;29;20035;-83
2023/04/21 07:12:24;;;;;;;19.52;13.27;;;15.80;99.90;;;;;;4917446;29;20048;-85
2023/04/21 07:14:50;;;;;;;19.42;13.77;;;15.70;99.90;;;;;;4915489;29;20095;-84
2023/04/21 07:17:16;;;;;;;20.67;13.63;;;16.10;99.90;;;;;;4908647;29;20032;-84
2023/04/21 07:19:42;;;;;;;22.33;13.98;;;16.20;99.90;;;;;;4914865;29;20123;-83
2023/04/21 07:22:07;;;;;;;21.00;13.98;;;16.50;99.90;;;;;;4918246;29;20040;-82
2023/04/21 07:24:34;;;;;;;24.08;14.98;;;16.50;99.90;;;;;;4917017;29;20031;-83
2023/04/21 07:27:01;;;;;;;20.48;13.02;;;16.40;99.90;;;;;;4918180;29;20115;-83
2023/04/21 07:29:27;;;;;;;20.05;13.77;;;16.80;99.90;;;;;;4917895;29;20035;-82
2023/04/21 07:31:54;;;;;;;22.23;15.23;;;17.10;99.90;;;;;;4918222;29;20048;-83
2023/04/21 07:34:20;;;;;;;24.50;13.85;;;16.90;99.90;;;;;;4917403;29;20036;-82
2023/04/21 07:36:45;;;;;;;23.48;14.38;;;17.00;99.90;;;;;;4916222;29;20040;-81
2023/04/21 07:39:11;;;;;;;21.65;13.30;;;17.30;99.90;;;;;;4917687;29;20035;-81
2023/04/21 07:41:37;;;;;;;20.60;13.48;;;17.20;99.90;;;;;;4917693;29;20087;-79
2023/04/21 07:44:03;;;;;;;23.63;15.68;;;17.30;99.90;;;;;;4917509;29;20383;-81
2023/04/21 07:46:30;;;;;;;20.60;13.90;;;16.90;99.90;;;;;;4916220;29;20024;-82
2023/04/21 07:48:58;;;;;;;21.50;13.68;;;17.50;99.90;;;;;;4917701;29;20051;-81
2023/04/21 07:51:24;;;;;;;22.73;14.32;;;17.20;99.90;;;;;;4917592;29;20025;-82
2023/04/21 07:53:51;;;;;;;21.83;14.18;;;17.00;99.90;;;;;;4917524;29;20115;-79
2023/04/21 07:56:16;;;;;;;19.17;12.77;;;17.10;99.90;;;;;;4917181;29;20139;-81
2023/04/21 07:58:42;;;;;;;20.25;13.63;;;17.30;99.90;;;;;;4916056;29;20524;-79
2023/04/21 08:01:08;;;;;;;17.08;11.32;;;17.30;99.90;;;;;;4916912;29;20030;-80
2023/04/21 08:03:34;;;;;;;17.70;12.80;;;17.60;99.90;;;;;;4917678;29;20024;-80
2023/04/21 08:06:00;;;;;;;22.50;12.55;;;17.50;99.90;;;;;;4917699;29;20123;-78
2023/04/21 08:08:26;;;;;;;21.60;11.77;;;17.60;99.90;;;;;;4916091;29;20092;-81
2023/04/21 08:10:52;;;;;;;21.42;11.25;;;17.80;99.90;;;;;;4916987;29;20036;-81
2023/04/21 08:13:20;;;;;;;18.52;11.80;;;18.00;99.90;;;;;;4917121;29;20032;-77
2023/04/21 08:15:46;;;;;;;17.40;11.57;;;18.10;99.90;;;;;;4915910;29;20593;-79
2023/04/21 08:18:11;;;;;;;20.48;11.27;;;18.10;99.90;;;;;;4916776;29;20032;-81
2023/04/21 08:20:37;;;;;;;19.25;11.13;;;18.20;99.90;;;;;;4916317;29;20052;-73
2023/04/21 08:23:03;;;;;;;20.00;12.25;;;18.30;99.50;;;;;;4916632;29;20028;-75
2023/04/21 08:25:29;;;;;;;23.10;11.40;;;18.40;99.90;;;;;;4918641;29;20472;-79
2023/04/21 08:27:55;;;;;;;19.67;11.77;;;18.40;99.10;;;;;;4915481;29;20036;-79
2023/04/21 08:30:21;;;;;;;21.33;10.85;;;18.80;98.80;;;;;;4916790;29;20021;-78
2023/04/21 08:32:47;;;;;;;20.13;11.48;;;19.00;98.30;;;;;;4917581;29;20472;-79
2023/04/21 08:35:13;;;;;;;18.13;11.60;;;19.00;98.10;;;;;;4916343;29;20075;-79
2023/04/21 08:37:38;;;;;;;17.45;11.57;;;19.20;99.90;;;;;;4915209;29;20032;-79
2023/04/21 08:40:06;;;;;;;20.50;11.98;;;19.10;98.30;;;;;;4916355;29;20029;-79
2023/04/21 08:42:33;;;;;;;20.67;11.52;;;19.30;99.10;;;;;;4916563;29;20039;-80
2023/04/21 08:44:59;;;;;;;18.75;10.88;;;19.50;97.70;;;;;;4916423;29;20068;-80
2023/04/21 08:47:27;;;;;;;22.05;11.18;;;19.50;98.60;;;;;;4900999;29;20071;-81
2023/04/21 08:49:53;;;;;;;22.27;9.80;;;19.40;98.30;;;;;;4912881;29;20572;-79
2023/04/21 08:52:19;;;;;;;24.92;8.60;;;19.50;95.30;;;;;;4915906;29;20024;-76
2023/04/21 08:54:46;;;;;;;20.52;8.70;;;19.00;94.30;;;;;;4916585;29;20036;-77
2023/04/21 08:57:12;;;;;;;14.05;6.63;;;18.90;93.50;;;;;;4915596;29;20119;-78
2023/04/21 08:59:38;;;;;;;17.63;7.63;;;18.80;93.00;;;;;;4916271;29;20124;-78
2023/04/21 09:02:13;;;;;;;21.02;8.40;;;18.60;92.50;;;;;;4914195;29;20032;-74
2023/04/21 09:04:46;;;;;;;17.30;7.43;;;18.50;95.50;;;;;;4916054;29;20032;-79
2023/04/21 09:07:28;;;;;;;;;;;18.90;95.90;;;;;;4915973;29;20037;-80
2023/04/21 09:09:55;;;;;;;20.13;8.37;;;18.90;92.10;;;;;;4915946;29;19915;-80
2023/04/21 09:12:22;;;;;;;15.35;8.25;;;18.70;93.10;;;;;;4914823;29;20337;-80
2023/04/21 09:14:49;;;;;;;17.67;7.57;;;19.00;94.20;;;;;;4897009;29;20048;-79
2023/04/21 09:17:16;;;;;;;14.63;8.55;;;19.10;95.60;;;;;;4915944;29;20032;-78
2023/04/21 09:19:42;;;;;;;19.83;8.60;;;19.20;96.60;;;;;;4915815;29;20052;-79
2023/04/21 09:22:13;;;;;;;18.98;8.35;;;19.00;95.90;;;;;;4915929;29;20488;-79
2023/04/21 09:24:45;;;;;;;14.45;7.78;;;19.10;94.60;;;;;;4915269;29;20030;-78
2023/04/21 09:27:11;;;;;;;18.73;7.55;;;18.90;95.20;;;;;;4909259;29;20028;-78
2023/04/21 09:29:37;;;;;;;21.33;6.85;;;19.00;94.20;;;;;;4910784;29;20028;-78
2023/04/21 09:32:03;;;;;;;16.73;6.35;;;19.10;92.40;;;;;;4915903;29;20038;-79
2023/04/21 09:34:29;;;;;;;17.73;6.25;;;19.00;91.60;;;;;;4916240;29;20032;-76
2023/04/21 09:37:03;;;;;;;23.80;7.40;;;19.10;90.90;;;;;;4915639;29;20095;-78
2023/04/21 09:39:31;;;;;;;16.13;6.60;;;19.10;92.60;;;;;;4915777;29;20043;-77
2023/04/21 09:41:57;;;;;;;18.70;7.47;;;19.10;91.70;;;;;;4915482;29;20357;-72
2023/04/21 09:44:24;;;;;;;22.90;7.88;;;19.30;91.10;;;;;;4898024;29;20032;-76
2023/04/21 09:46:52;;;;;;;19.10;7.30;;;19.30;92.50;;;;;;4915495;29;20362;-77
2023/04/21 09:49:21;;;;;;;18.77;6.18;;;19.30;91.10;;;;;;4916163;29;20039;-77
2023/04/21 09:51:47;;;;;;;16.90;6.40;;;19.20;91.90;;;;;;4915752;29;20194;-73
2023/04/21 09:54:18;;;;;;;17.27;7.30;;;19.30;91.80;;;;;;4915807;29;20111;-78
2023/04/21 09:56:48;;;;;;;23.58;6.32;;;19.30;91.30;;;;;;4915581;29;20424;-76
2023/04/21 09:59:19;;;;;;;14.18;5.68;;;19.00;88.20;;;;;;4915163;29;20032;-78
2023/04/21 10:01:48;;;;;;;24.58;7.68;;;19.10;90.90;;;;;;4915601;29;20028;-77
2023/04/21 10:04:15;;;;;;;18.90;7.55;;;19.10;90.80;;;;;;4898255;29;20389;-73
2023/04/21 10:06:41;;;;;;;13.10;6.15;;;19.30;90.90;;;;;;4910050;29;20119;-78
2023/04/21 10:09:09;;;;;;;17.70;6.25;;;19.60;88.90;;;;;;4912172;29;20507;-77
2023/04/21 10:11:35;;;;;;;15.70;6.05;;;19.70;90.80;;;;;;4897129;29;20393;-78
2023/04/21 10:14:03;;;;;;;13.10;4.95;;;19.70;90.30;;;;;;4914421;29;20087;-78
2023/04/21 10:16:29;;;;;;;11.63;4.90;;;19.60;90.00;;;;;;4912660;29;20036;-78
2023/04/21 10:18:54;;;;;;;12.20;4.53;;;19.50;91.40;;;;;;4914225;29;20037;-78
2023/04/21 10:21:23;;;;;;;17.20;5.93;;;19.50;90.70;;;;;;4915221;29;20163;-78
2023/04/21 10:23:50;;;;;;;15.63;5.65;;;19.40;92.00;;;;;;4915279;29;20051;-76
2023/04/21 10:26:22;;;;;;;18.55;5.70;;;19.40;89.70;;;;;;4915311;29;20036;-77
2023/04/21 10:29:05;;;;;;;12.55;5.20;;;19.30;87.60;;;;;;4914912;29;20113;-76
2023/04/21 10:31:32;;;;;;;13.90;4.75;;;19.20;87.70;;;;;;4914558;29;20115;-74
2023/04/21 10:34:07;;;;;;;13.45;5.35;;;19.50;90.20;;;;;;4915505;29;20032;-77
2023/04/21 10:36:48;;;;;;;11.43;4.53;;;19.20;86.70;;;;;;4914067;29;20047;-79
2023/04/21 10:39:28;;;;;;;12.43;5.20;;;19.30;91.20;;;;;;4908962;29;20029;-73
2023/04/21 10:41:59;;;;;;;10.80;4.78;;;19.50;89.20;;;;;;4898283;29;20099;-76
2023/04/21 10:44:27;;;;;;;21.52;4.85;;;19.40;88.70;;;;;;4916276;29;20063;-79
2023/04/21 10:46:53;;;;;;;10.75;5.43;;;19.30;89.80;;;;;;4918948;29;20031;-76
2023/04/21 10:49:22;;;;;;;13.77;5.25;;;19.20;87.10;;;;;;4918301;29;20472;-74
2023/04/21 10:52:06;;;;;;;12.13;5.25;;;19.30;90.00;;;;;;4917493;29;20480;-77
2023/04/21 10:54:44;;;;;;;20.95;5.90;;;19.20;90.20;;;;;;4917414;29;20103;-76
2023/04/21 10:57:18;;;;;;;11.70;5.43;;;19.20;91.60;;;;;;4917567;29;20479;-77
2023/04/21 10:59:46;;;;;;;15.52;5.40;;;19.50;92.60;;;;;;4918081;29;20507;-73
2023/04/21 11:02:14;;;;;;;13.85;5.10;;;19.70;92.80;;;;;;4913039;29;21838;-76
2023/04/21 11:04:46;;;;;;;19.33;5.25;;;19.50;91.30;;;;;;4914063;29;20115;-74
2023/04/21 11:07:24;;;;;;;14.38;5.30;;;19.80;90.50;;;;;;4909746;29;20433;-76
2023/04/21 11:09:58;;;;;;;13.90;6.00;;;19.60;88.70;;;;;;4915463;29;20151;-76
2023/04/21 11:12:29;;;;;;;15.23;4.97;;;19.50;90.10;;;;;;4910023;29;20063;-76
2023/04/21 11:14:55;;;;;;;11.98;4.82;;;19.60;89.00;;;;;;4917994;29;20030;-74
2023/04/21 11:17:23;;;;;;;12.52;4.90;;;19.90;87.40;;;;;;4916410;29;20039;-73
2023/04/21 11:19:54;;;;;;;12.15;4.97;;;19.80;87.70;;;;;;4913594;29;20484;-77
2023/04/21 11:22:24;;;;;;;12.60;5.30;;;20.00;90.10;;;;;;4911109;29;20028;-77
2023/04/21 11:24:54;;;;;;;13.43;5.53;;;19.80;88.70;;;;;;4917496;29;20531;-74
2023/04/21 11:27:23;;;;;;;13.20;5.60;;;20.00;87.50;;;;;;4894785;29;20034;-74
2023/04/21 11:29:49;;;;;;;10.27;4.68;;;20.20;86.20;;;;;;4908547;29;20067;-76
2023/04/21 11:32:16;;;;;;;11.38;4.40;;;20.20;89.90;;;;;;4905637;29;20024;-77
2023/04/21 11:34:41;;;;;;;10.55;4.78;;;20.00;88.90;;;;;;4910567;29;20345;-76
2023/04/21 11:37:09;;;;;;;9.07;3.97;;;19.80;84.50;;;;;;4912215;29;20050;-76
2023/04/21 11:39:38;;;;;;;14.25;3.88;;;19.60;85.00;;;;;;4917745;29;20436;-73
2023/04/21 11:42:04;;;;;;;11.65;3.35;;;19.60;84.80;;;;;;4918118;29;20548;-77
2023/04/21 11:44:39;;;;;;;9.90;3.25;;;19.20;83.80;;;;;;4911990;29;20017;-76
2023/04/21 11:47:31;;;;;;;9.48;3.70;;;19.20;84.50;;;;;;4898936;29;20040;-76
2023/04/21 11:50:00;;;;;;;13.90;4.03;;;19.20;84.50;;;;;;4904611;29;20041;-77
2023/04/21 11:52:27;;;;;;;11.82;3.95;;;19.10;85.10;;;;;;4914787;29;20170;-76
2023/04/21 11:55:19;;;;;;;17.02;4.35;;;19.10;85.40;;;;;;4916217;29;20092;-75
2023/04/21 11:57:45;;;;;;;9.10;3.08;;;19.10;85.70;;;;;;4821634;29;20058;-75
2023/04/21 12:00:13;;;;;;;9.82;4.20;;;19.40;86.70;;;;;;4822027;29;20049;-77
2023/04/21 12:02:39;;;;;;;11.55;3.78;;;19.60;88.80;;;;;;4822263;29;20552;-76
2023/04/21 12:05:07;;;;;;;13.50;5.07;;;20.00;87.80;;;;;;4822555;29;20023;-78
2023/04/21 12:07:35;;;;;;;13.60;3.38;;;20.20;83.40;;;;;;4821901;29;20108;-75
2023/04/21 12:10:02;;;;;;;16.75;3.75;;;20.30;83.40;;;;;;4818898;29;20055;-74
2023/04/21 12:12:28;;;;;;;10.18;3.45;;;20.20;87.60;;;;;;4822221;29;20045;-75
2023/04/21 12:14:54;;;;;;;9.75;3.33;;;20.10;85.80;;;;;;4823183;29;20047;-76
2023/04/21 12:17:20;;;;;;;8.10;3.88;;;20.00;85.20;;;;;;4821761;29;20043;-75
2023/04/21 12:19:46;;;;;;;6.63;3.17;;;20.00;84.80;;;;;;4814527;29;20066;-78
2023/04/21 12:22:17;;;;;;;12.43;4.40;;;20.10;82.80;;;;;;4820575;29;20034;-77
2023/04/21 12:24:46;;;;;;;12.25;3.45;;;20.30;86.80;;;;;;4822034;29;20151;-77
2023/04/21 12:27:12;;;;;;;9.10;3.17;;;20.20;80.60;;;;;;4820981;29;20042;-77
2023/04/21 12:29:39;;;;;;;10.43;3.28;;;20.00;80.10;;;;;;4821848;29;20429;-75
2023/04/21 12:32:05;;;;;;;7.00;3.03;;;19.90;82.20;;;;;;4794707;29;20125;-75